createdAt,value
2022-10-01T00:01:24.398Z,10.86
2022-10-01T00:03:50.995Z,10.87
2022-10-01T00:06:20.145Z,10.95
2022-10-01T00:08:49.380Z,10.84
2022-10-01T00:11:24.767Z,11.04
2022-10-01T00:13:52.389Z,11.09
2022-10-01T00:16:21.980Z,11.01
2022-10-01T00:18:49.676Z,11.11
2022-10-01T00:21:20.898Z,11.11
2022-10-01T00:23:48.449Z,11.21
2022-10-01T00:26:21.910Z,11.26
2022-10-01T00:28:55.580Z,11.25
2022-10-01T00:31:23.442Z,11.21
2022-10-01T00:33:53.273Z,11.29
2022-10-01T00:36:20.434Z,11.34
2022-10-01T00:38:48.953Z,11.32
2022-10-01T00:41:17.408Z,11.36
2022-10-01T00:43:46.787Z,11.33
2022-10-01T00:46:22.447Z,11.40
2022-10-01T00:49:19.064Z,11.46
2022-10-01T00:51:50.880Z,11.45
2022-10-01T00:54:22.382Z,11.49
2022-10-01T00:56:53.984Z,11.48
2022-10-01T00:59:20.982Z,11.64
2022-10-01T01:01:48.845Z,11.65
2022-10-01T01:04:18.139Z,11.65
2022-10-01T01:06:53.835Z,11.71
2022-10-01T01:09:22.760Z,11.69
2022-10-01T01:12:16.843Z,11.76
2022-10-01T01:14:56.173Z,11.68
2022-10-01T01:17:49.264Z,11.74
2022-10-01T01:20:51.762Z,11.81
2022-10-01T01:23:18.452Z,11.79
2022-10-01T01:26:04.959Z,11.82
2022-10-01T01:28:38.027Z,11.85
2022-10-01T01:31:13.102Z,11.92
2022-10-01T01:33:43.690Z,11.85
2022-10-01T01:36:19.307Z,11.91
2022-10-01T01:38:54.916Z,11.97
2022-10-01T01:41:27.142Z,11.85
2022-10-01T01:43:56.981Z,11.99
2022-10-01T01:46:33.950Z,11.99
2022-10-01T01:49:02.235Z,12.01
2022-10-01T01:51:43.659Z,12.02
2022-10-01T01:54:10.347Z,12.01
2022-10-01T01:56:37.139Z,11.94
2022-10-01T01:59:04.056Z,12.03
2022-10-01T02:01:42.463Z,12.07
2022-10-01T02:04:21.985Z,12.06
2022-10-01T02:07:16.695Z,12.11
2022-10-01T02:10:25.598Z,12.11
2022-10-01T02:13:39.087Z,12.09
2022-10-01T02:16:31.645Z,12.08
2022-10-01T02:19:46.256Z,12.12
2022-10-01T02:22:19.855Z,12.12
2022-10-01T02:24:53.071Z,12.11
2022-10-01T02:27:29.896Z,12.12
2022-10-01T02:30:00.617Z,12.11
2022-10-01T02:32:31.779Z,12.12
2022-10-01T02:35:00.374Z,12.15
2022-10-01T02:37:28.363Z,12.12
2022-10-01T02:39:57.631Z,12.16
2022-10-01T02:42:28.827Z,12.14
2022-10-01T02:45:02.589Z,12.11
2022-10-01T02:47:40.871Z,12.18
2022-10-01T02:50:09.097Z,12.16
2022-10-01T02:53:00.091Z,12.21
2022-10-01T02:55:31.627Z,12.21
2022-10-01T02:57:58.630Z,12.19
2022-10-01T03:00:27.049Z,12.18
2022-10-01T03:02:54.718Z,12.21
2022-10-01T03:05:22.157Z,12.22
2022-10-01T03:07:48.862Z,12.21
2022-10-01T03:10:16.301Z,12.25
2022-10-01T03:12:45.190Z,12.26
2022-10-01T03:15:13.383Z,12.27
2022-10-01T03:17:41.095Z,12.29
2022-10-01T03:20:09.062Z,12.16
2022-10-01T03:22:35.814Z,12.32
2022-10-01T03:25:02.756Z,12.31
2022-10-01T03:27:31.734Z,12.28
2022-10-01T03:29:58.294Z,12.34
2022-10-01T03:32:24.911Z,12.32
2022-10-01T03:34:51.494Z,12.33
2022-10-01T03:37:18.094Z,12.32
2022-10-01T03:39:45.783Z,12.34
2022-10-01T03:42:12.372Z,12.33
2022-10-01T03:44:39.026Z,12.30
2022-10-01T03:47:07.267Z,12.34
2022-10-01T03:49:34.698Z,12.27
2022-10-01T03:52:02.421Z,12.36
2022-10-01T03:54:31.258Z,12.43
2022-10-01T03:56:57.960Z,12.47
2022-10-01T03:59:26.304Z,12.50
2022-10-01T04:01:55.358Z,12.40
2022-10-01T04:04:22.037Z,12.46
2022-10-01T04:06:48.889Z,12.47
2022-10-01T04:09:15.508Z,12.40
2022-10-01T04:11:42.073Z,12.51
2022-10-01T04:14:09.117Z,12.54
2022-10-01T04:16:36.419Z,12.57
2022-10-01T04:19:04.699Z,12.62
2022-10-01T04:21:31.516Z,12.71
2022-10-01T04:23:59.748Z,12.70
2022-10-01T04:26:29.078Z,12.69
2022-10-01T04:28:55.668Z,12.83
2022-10-01T04:31:25.152Z,12.89
2022-10-01T04:33:56.605Z,12.88
2022-10-01T04:36:24.610Z,12.81
2022-10-01T04:39:00.845Z,12.77
2022-10-01T04:41:30.871Z,12.79
2022-10-01T04:43:59.453Z,12.56
2022-10-01T04:46:26.180Z,12.78
2022-10-01T04:48:52.816Z,12.83
2022-10-01T04:51:19.436Z,12.86
2022-10-01T04:53:46.088Z,12.86
2022-10-01T04:56:12.688Z,12.93
2022-10-01T04:58:39.453Z,13.03
2022-10-01T05:01:06.214Z,13.06
2022-10-01T05:03:32.887Z,13.05
2022-10-01T05:06:01.091Z,13.02
2022-10-01T05:08:27.701Z,13.26
2022-10-01T05:10:54.386Z,13.37
2022-10-01T05:13:21.064Z,13.53
2022-10-01T05:15:52.240Z,13.66
2022-10-01T05:18:19.198Z,13.78
